Time;durP1;ratioP1;P1;durP2;ratioP2;P2;SDS_P1;SDS_P2;PMS_P1;PMS_P2;Temp;Humidity;BMP_temperature;BMP_pressure;BME280_temperature;BME280_humidity;BME280_pressure;Samples;Min_cycle;Max_cycle;Signal;HPM_P1;HPM_P2
2021/12/10 00:04:12;;;;;;;24.73;12.63;;;;;;;5.93;100.00;100811.16;31304144;28;20076;-73
2021/12/10 00:19:33;;;;;;;18.73;8.60;;;;;;;5.87;100.00;100831.47;31271187;28;20119;-74
2021/12/10 00:34:40;;;;;;;29.27;10.10;;;;;;;5.75;100.00;100846.72;31280397;28;20184;-74
2021/12/10 00:49:42;;;;;;;35.83;15.00;;;;;;;5.70;100.00;100836.28;31303863;28;20076;-73
2021/12/10 01:04:47;;;;;;;26.07;11.23;;;;;;;5.66;100.00;100830.09;31279580;28;20077;-73
2021/12/10 01:35:31;;;;;;;30.40;9.30;;;;;;;5.71;100.00;100839.75;31258391;28;20042;-72
2021/12/10 01:50:34;;;;;;;28.97;10.33;;;;;;;5.70;100.00;100844.34;31268348;28;20057;-73
2021/12/10 02:05:36;;;;;;;23.27;9.03;;;;;;;5.72;100.00;100841.28;31285471;28;20048;-72
2021/12/10 02:21:00;;;;;;;19.50;8.10;;;;;;;5.62;100.00;100837.34;31282786;28;20060;-73
2021/12/10 02:36:03;;;;;;;27.47;9.30;;;;;;;5.64;100.00;100856.63;31287537;28;20057;-72
2021/12/10 02:51:08;;;;;;;23.07;9.53;;;;;;;5.65;100.00;100849.31;31274758;28;20049;-74
2021/12/10 03:06:12;;;;;;;26.27;10.37;;;;;;;5.75;100.00;100852.13;31270098;28;20052;-73
2021/12/10 03:21:14;;;;;;;23.80;10.73;;;;;;;5.89;100.00;100866.94;31273157;28;20049;-73
2021/12/10 03:36:16;;;;;;;23.77;9.27;;;;;;;5.89;100.00;100866.94;31274057;28;20072;-73
2021/12/10 03:51:26;;;;;;;23.07;10.10;;;;;;;5.98;100.00;100875.50;31270839;28;20050;-74
2021/12/10 04:06:28;;;;;;;27.47;11.40;;;;;;;5.94;100.00;100885.47;31260146;28;20053;-74
2021/12/10 04:21:31;;;;;;;28.50;9.60;;;;;;;5.82;100.00;100889.94;31273952;28;20141;-73
2021/12/10 04:36:34;;;;;;;30.37;11.47;;;;;;;5.81;100.00;100888.38;31272602;28;20049;-74
2021/12/10 04:51:42;;;;;;;36.83;12.30;;;;;;;5.90;100.00;100900.84;31284074;28;20053;-75
2021/12/10 05:06:44;;;;;;;31.17;11.50;;;;;;;5.88;100.00;100909.25;31265084;28;20091;-74
2021/12/10 05:21:46;;;;;;;30.93;11.77;;;;;;;5.93;100.00;100913.56;31281857;28;20057;-74
2021/12/10 05:36:48;;;;;;;25.13;12.73;;;;;;;5.99;100.00;100934.44;31266954;28;20072;-74
2021/12/10 05:51:50;;;;;;;27.37;12.67;;;;;;;6.03;100.00;100937.16;31309843;28;20499;-74
2021/12/10 06:06:53;;;;;;;35.40;13.93;;;;;;;6.13;100.00;100952.72;31277796;28;20055;-76
2021/12/10 06:21:55;;;;;;;33.60;13.70;;;;;;;6.23;100.00;100976.31;31318412;28;20053;-77
2021/12/10 06:36:57;;;;;;;33.37;14.37;;;;;;;6.28;100.00;100951.72;31304435;28;20095;-76
2021/12/10 06:52:01;;;;;;;27.63;11.73;;;;;;;6.45;100.00;100964.63;31345395;28;20053;-75
2021/12/10 07:07:03;;;;;;;23.50;11.37;;;;;;;6.49;100.00;100970.06;31343433;28;20055;-76
2021/12/10 07:22:06;;;;;;;26.20;12.20;;;;;;;6.72;100.00;100973.38;31352643;28;20053;-75
2021/12/10 07:37:12;;;;;;;29.60;11.83;;;;;;;6.90;100.00;100978.94;31299564;28;20052;-77
2021/12/10 07:52:27;;;;;;;30.27;12.90;;;;;;;7.03;100.00;100985.63;31289404;28;20437;-76
2021/12/10 08:07:29;;;;;;;30.33;12.73;;;;;;;7.32;100.00;100978.50;31339618;28;20049;-77
2021/12/10 08:22:31;;;;;;;23.70;12.00;;;;;;;7.75;100.00;100973.41;31295187;28;20045;-76
2021/12/10 08:37:33;;;;;;;23.57;12.30;;;;;;;8.23;100.00;100959.72;31334917;28;20056;-76
2021/12/10 08:52:37;;;;;;;24.30;11.17;;;;;;;9.02;100.00;100937.84;31317657;28;20489;-77
2021/12/10 09:07:43;;;;;;;21.30;11.57;;;;;;;8.87;100.00;100944.44;31280432;28;20136;-76
2021/12/10 09:22:46;;;;;;;23.63;11.50;;;;;;;8.98;100.00;100928.16;31328842;28;20059;-76
2021/12/10 09:37:48;;;;;;;22.73;9.80;;;;;;;8.63;100.00;100934.34;31346941;28;20757;-76
2021/12/10 09:52:51;;;;;;;18.40;9.33;;;;;;;8.49;100.00;100940.50;31294452;28;20053;-76
2021/12/10 10:07:57;;;;;;;15.30;8.10;;;;;;;8.39;100.00;100914.97;31333981;28;20141;-77
2021/12/10 10:22:59;;;;;;;19.33;9.33;;;;;;;8.39;100.00;100901.44;31356489;28;20041;-76
2021/12/10 10:38:03;;;;;;;22.57;10.03;;;;;;;8.42;100.00;100865.50;31338618;28;20133;-77
2021/12/10 10:53:10;;;;;;;21.27;9.47;;;;;;;8.52;100.00;100883.66;31319693;28;20045;-77
2021/12/10 11:08:12;;;;;;;18.43;8.30;;;;;;;8.54;100.00;100862.41;31313359;28;20661;-75
2021/12/10 11:23:16;;;;;;;19.40;9.70;;;;;;;8.85;100.00;100839.22;31308284;28;20174;-76
2021/12/10 11:38:29;;;;;;;15.50;8.63;;;;;;;9.11;100.00;100862.41;31343914;28;20068;-78
2021/12/10 11:53:46;;;;;;;14.23;7.40;;;;;;;9.61;100.00;100856.84;31358930;28;20044;-75
2021/12/10 12:08:52;;;;;;;10.13;5.23;;;;;;;9.71;100.00;100860.66;31355962;28;20056;-76
2021/12/10 12:39:39;;;;;;;8.93;5.00;;;;;;;9.72;100.00;100871.13;31323089;28;20111;-79
2021/12/10 12:55:00;;;;;;;8.90;4.07;;;;;;;9.70;100.00;100868.03;31361045;28;20113;-76
2021/12/10 13:10:09;;;;;;;11.27;4.63;;;;;;;9.62;100.00;100884.72;31388352;28;20052;-77
2021/12/10 13:25:15;;;;;;;11.00;4.90;;;;;;;9.49;100.00;100876.25;31335267;28;20613;-77
2021/12/10 13:40:18;;;;;;;7.07;3.93;;;;;;;9.35;100.00;100870.88;31323464;28;20087;-76
2021/12/10 13:55:43;;;;;;;9.43;3.57;;;;;;;9.30;100.00;100868.56;31344069;28;20049;-76
2021/12/10 14:10:51;;;;;;;6.97;4.03;;;;;;;9.19;100.00;100858.53;31316116;28;20084;-76
2021/12/10 14:26:01;;;;;;;8.03;4.10;;;;;;;9.17;100.00;100847.31;31334408;28;20712;-77
2021/12/10 14:41:28;;;;;;;8.67;4.33;;;;;;;9.14;100.00;100856.22;31309678;28;20052;-76
2021/12/10 14:56:36;;;;;;;11.17;5.83;;;;;;;9.20;100.00;100865.50;31314916;28;20052;-77
2021/12/10 15:12:00;;;;;;;9.97;5.23;;;;;;;9.23;100.00;100886.34;31354153;28;20079;-76
2021/12/10 15:27:25;;;;;;;13.03;4.90;;;;;;;9.20;100.00;100886.38;31333537;28;20048;-77
2021/12/10 15:42:29;;;;;;;9.43;4.97;;;;;;;9.15;100.00;100882.13;31332570;28;20220;-77
2021/12/10 15:57:45;;;;;;;15.53;7.53;;;;;;;9.07;100.00;100883.28;31348563;28;20056;-76
2021/12/10 16:13:14;;;;;;;7.70;4.53;;;;;;;8.94;100.00;100884.88;31300021;28;20136;-82
2021/12/10 16:28:18;;;;;;;8.60;4.50;;;;;;;8.89;100.00;100877.13;31323167;28;20053;-74
2021/12/10 16:43:32;;;;;;;6.03;3.70;;;;;;;8.78;100.00;100860.88;31388052;28;20414;-77
2021/12/10 16:58:36;;;;;;;10.52;5.18;;;;;;;8.62;100.00;100873.25;31328333;28;20045;-77
2021/12/10 17:13:49;;;;;;;9.83;5.17;;;;;;;8.59;100.00;100879.44;31300324;28;20140;-76
2021/12/10 17:28:56;;;;;;;10.00;5.27;;;;;;;8.48;100.00;100891.03;31366900;28;20084;-77
2021/12/10 17:44:02;;;;;;;12.13;5.80;;;;;;;8.30;100.00;100898.28;31315895;28;20077;-75
2021/12/10 17:59:10;;;;;;;11.20;5.87;;;;;;;8.39;100.00;100893.31;31300981;28;20085;-71
2021/12/10 18:14:12;;;;;;;8.73;5.80;;;;;;;8.39;100.00;100892.56;31347158;28;20053;-80
2021/12/10 18:29:23;;;;;;;10.87;5.93;;;;;;;8.23;100.00;100884.00;31359172;28;20139;-81
2021/12/10 18:44:26;;;;;;;11.37;6.40;;;;;;;7.99;100.00;100874.66;31325477;28;20049;-72
2021/12/10 18:59:29;;;;;;;15.57;7.53;;;;;;;7.99;100.00;100885.47;31326260;28;20048;-72
2021/12/10 19:14:34;;;;;;;15.83;7.03;;;;;;;7.79;100.00;100866.88;31351571;28;20053;-74
2021/12/10 19:29:39;;;;;;;9.23;5.27;;;;;;;7.61;100.00;100863.31;31327937;28;20053;-73
2021/12/10 19:44:44;;;;;;;11.40;6.33;;;;;;;7.38;100.00;100857.41;31342434;28;20053;-73
2021/12/10 20:00:07;;;;;;;13.97;6.17;;;;;;;7.26;100.00;100882.81;31315505;28;20147;-74
2021/12/10 20:15:20;;;;;;;16.20;6.57;;;;;;;7.26;100.00;100871.22;31304775;28;20048;-73
2021/12/10 20:30:28;;;;;;;11.80;6.20;;;;;;;7.27;100.00;100872.78;31287500;28;20738;-76
2021/12/10 20:45:36;;;;;;;9.70;5.93;;;;;;;7.24;100.00;100852.69;31313854;28;20558;-74
2021/12/10 21:00:52;;;;;;;10.27;5.77;;;;;;;7.26;100.00;100852.31;31284601;28;20503;-76
2021/12/10 21:16:08;;;;;;;10.73;6.10;;;;;;;7.32;100.00;100831.91;31301128;28;20053;-72
2021/12/10 21:31:16;;;;;;;9.40;4.43;;;;;;;7.39;100.00;100837.34;31286156;28;20325;-75
2021/12/10 21:46:31;;;;;;;9.80;5.77;;;;;;;7.41;100.00;100832.34;31303229;28;20057;-74
2021/12/10 22:01:42;;;;;;;14.17;6.93;;;;;;;7.41;100.00;100835.03;31324706;28;20060;-72
2021/12/10 22:16:52;;;;;;;15.10;6.73;;;;;;;7.28;100.00;100798.72;31309404;28;20503;-73
2021/12/10 22:32:03;;;;;;;13.40;7.07;;;;;;;7.11;100.00;100802.84;31306006;28;20072;-73
2021/12/10 22:47:10;;;;;;;17.93;8.23;;;;;;;6.93;100.00;100829.75;31323787;28;20053;-73
2021/12/10 23:02:18;;;;;;;15.37;7.27;;;;;;;6.84;100.00;100769.94;31310649;28;20152;-73
2021/12/10 23:17:43;;;;;;;17.37;7.30;;;;;;;6.65;100.00;100756.69;31275300;28;20042;-74
2021/12/10 23:32:50;;;;;;;14.03;7.27;;;;;;;6.49;100.00;100757.75;31272383;28;20057;-74
2021/12/10 23:47:53;;;;;;;16.27;7.47;;;;;;;6.59;100.00;100769.00;31275697;28;20488;-72
